Time;durP1;ratioP1;P1;durP2;ratioP2;P2;SDS_P1;SDS_P2;PMS_P1;PMS_P2;Temp;Humidity;BMP_temperature;BMP_pressure;BME280_temperature;BME280_humidity;BME280_pressure;Samples;Min_cycle;Max_cycle;Signal;HPM_P1;HPM_P2
2023/03/18 08:57:39;;;;;;;3.57;1.90;;;14.30;99.90;;;;;;4931889;23;20751;-74
2023/03/18 09:00:07;;;;;;;3.10;1.57;;;14.40;99.90;;;;;;4900990;29;20238;-76
2023/03/18 09:02:34;;;;;;;2.77;1.40;;;14.10;99.90;;;;;;4900855;29;20210;-79
2023/03/18 09:05:01;;;;;;;2.43;1.50;;;14.00;99.90;;;;;;4900958;29;20211;-74
2023/03/18 09:07:28;;;;;;;2.27;1.70;;;14.10;99.90;;;;;;4900882;29;20210;-77
2023/03/18 09:09:55;;;;;;;3.43;1.50;;;14.20;99.90;;;;;;4900783;29;20210;-79
2023/03/18 09:12:22;;;;;;;4.87;1.70;;;14.30;99.90;;;;;;4900883;29;20214;-76
2023/03/18 09:14:50;;;;;;;2.83;1.30;;;14.30;99.90;;;;;;4901012;29;20214;-74
2023/03/18 09:17:17;;;;;;;3.63;1.37;;;14.70;99.90;;;;;;4900949;29;20216;-74
2023/03/18 09:19:44;;;;;;;2.33;1.53;;;14.90;99.90;;;;;;4900344;29;20328;-74
2023/03/18 09:22:11;;;;;;;2.73;1.67;;;15.00;99.90;;;;;;4900128;29;20207;-75
2023/03/18 09:24:38;;;;;;;1.93;1.10;;;14.80;99.90;;;;;;4900378;29;20685;-74
2023/03/18 09:27:05;;;;;;;2.10;1.30;;;15.00;99.90;;;;;;4900084;29;20210;-75
2023/03/18 09:29:32;;;;;;;2.40;1.30;;;15.20;99.90;;;;;;4900710;29;20285;-77
2023/03/18 09:32:00;;;;;;;3.27;1.20;;;15.20;99.90;;;;;;4900487;29;20215;-76
2023/03/18 09:34:27;;;;;;;2.47;1.40;;;15.20;99.90;;;;;;4900290;29;20230;-76
2023/03/18 09:36:53;;;;;;;5.20;1.83;;;15.20;99.90;;;;;;4900531;29;20386;-79
2023/03/18 09:39:21;;;;;;;2.70;1.40;;;15.10;99.90;;;;;;4900478;29;20594;-74
2023/03/18 09:42:01;;;;;;;1.40;1.00;;;15.10;99.90;;;;;;4900641;29;20210;-74
2023/03/18 09:44:32;;;;;;;2.67;1.20;;;15.20;99.90;;;;;;4900484;29;20230;-74
2023/03/18 09:47:17;;;;;;;3.57;1.40;;;15.10;99.90;;;;;;4900058;29;20301;-75
2023/03/18 09:49:59;;;;;;;5.40;1.43;;;15.20;99.90;;;;;;4900076;29;20211;-74
2023/03/18 09:52:29;;;;;;;1.73;1.20;;;15.20;99.90;;;;;;4899842;29;20717;-75
2023/03/18 09:55:02;;;;;;;1.80;1.17;;;15.00;99.90;;;;;;4900299;29;20210;-77
2023/03/18 09:57:33;;;;;;;2.00;1.00;;;14.90;99.90;;;;;;4899811;29;20233;-74
2023/03/18 10:00:08;;;;;;;2.87;1.20;;;14.70;99.90;;;;;;4900031;29;20238;-79
2023/03/18 10:02:40;;;;;;;1.70;0.90;;;14.50;99.90;;;;;;4900221;29;20712;-77
2023/03/18 10:05:12;;;;;;;1.73;0.97;;;14.30;99.90;;;;;;4900374;29;20218;-74
2023/03/18 10:07:43;;;;;;;2.87;1.20;;;14.20;99.90;;;;;;4900009;29;20215;-76
2023/03/18 10:10:16;;;;;;;1.70;0.87;;;14.20;99.90;;;;;;4899917;29;20245;-74
2023/03/18 10:12:48;;;;;;;2.57;1.20;;;14.20;99.90;;;;;;4899450;29;20231;-75
2023/03/18 10:15:18;;;;;;;1.13;0.80;;;14.20;99.90;;;;;;4900019;29;20213;-86
2023/03/18 10:17:52;;;;;;;3.10;1.13;;;14.30;99.90;;;;;;4900324;29;20311;-87
2023/03/18 10:20:27;;;;;;;1.73;1.20;;;14.40;99.90;;;;;;4899939;29;20234;-87
2023/03/18 10:23:08;;;;;;;2.07;1.40;;;14.50;99.90;;;;;;4900499;29;20236;-86
2023/03/18 10:25:38;;;;;;;1.47;0.93;;;14.50;99.90;;;;;;4900374;29;20216;-86
2023/03/18 10:28:29;;;;;;;1.10;0.73;;;14.30;99.90;;;;;;4899725;29;20218;-87
2023/03/18 10:31:05;;;;;;;2.53;1.30;;;14.30;99.90;;;;;;4900430;29;20224;-88
2023/03/18 10:33:45;;;;;;;1.20;0.93;;;14.20;99.90;;;;;;4899699;29;20233;-84
2023/03/18 10:36:16;;;;;;;3.23;1.10;;;14.20;99.90;;;;;;4899953;29;20662;-88
2023/03/18 10:38:45;;;;;;;2.93;1.20;;;14.10;99.90;;;;;;4899971;29;20210;-87
2023/03/18 10:41:20;;;;;;;4.60;1.10;;;14.00;99.90;;;;;;4899825;29;20238;-88
2023/03/18 10:43:48;;;;;;;2.57;1.00;;;14.00;99.90;;;;;;4899388;29;20229;-76
2023/03/18 10:46:18;;;;;;;5.03;1.20;;;14.00;99.90;;;;;;4899143;29;20210;-74
2023/03/18 10:48:50;;;;;;;1.73;1.23;;;13.90;99.90;;;;;;4898710;29;20577;-74
2023/03/18 10:51:21;;;;;;;2.40;1.20;;;14.00;99.90;;;;;;4899050;29;20214;-73
2023/03/18 10:53:55;;;;;;;4.03;1.10;;;14.10;99.90;;;;;;4899203;29;20241;-74
2023/03/18 10:56:22;;;;;;;1.60;1.13;;;13.90;99.90;;;;;;4898840;29;20215;-76
2023/03/18 10:58:51;;;;;;;1.97;1.10;;;13.80;99.90;;;;;;4899092;29;20221;-74
2023/03/18 11:01:23;;;;;;;1.83;1.10;;;13.70;99.90;;;;;;4898934;29;20257;-74
2023/03/18 11:03:54;;;;;;;2.03;1.10;;;13.60;99.90;;;;;;4898687;29;20238;-74
2023/03/18 11:06:25;;;;;;;6.03;1.20;;;13.60;99.90;;;;;;4898598;29;20214;-73
2023/03/18 11:09:00;;;;;;;1.90;0.90;;;13.70;99.90;;;;;;4897852;29;20678;-74
2023/03/18 11:11:31;;;;;;;1.57;1.00;;;13.80;99.90;;;;;;4897889;29;20222;-74
2023/03/18 11:14:01;;;;;;;3.07;1.13;;;14.00;99.90;;;;;;4897881;29;20257;-75
2023/03/18 11:16:33;;;;;;;1.27;0.87;;;14.00;99.90;;;;;;4897709;29;20206;-74
2023/03/18 11:19:21;;;;;;;1.30;0.90;;;14.20;99.90;;;;;;4897912;29;20216;-74
2023/03/18 11:21:49;;;;;;;4.03;0.90;;;14.50;99.90;;;;;;4896057;29;20214;-73
2023/03/18 11:24:34;;;;;;;2.60;0.87;;;14.70;99.90;;;;;;4897480;29;20708;-74
2023/03/18 11:27:02;;;;;;;0.93;0.80;;;14.90;99.90;;;;;;4897624;29;20309;-78
2023/03/18 11:29:33;;;;;;;1.73;0.90;;;15.10;99.90;;;;;;4897712;29;20301;-76
2023/03/18 11:32:01;;;;;;;2.40;0.70;;;15.30;99.90;;;;;;4897126;29;20210;-74
2023/03/18 11:34:31;;;;;;;2.40;0.93;;;15.50;99.90;;;;;;4897570;29;20601;-74
2023/03/18 11:37:00;;;;;;;1.90;0.67;;;15.90;99.90;;;;;;4898090;29;20206;-74
2023/03/18 11:39:29;;;;;;;1.43;0.80;;;15.80;99.90;;;;;;4897098;29;20234;-74
2023/03/18 11:41:58;;;;;;;1.13;0.80;;;15.80;99.90;;;;;;4897008;29;20258;-74
2023/03/18 11:44:29;;;;;;;0.87;0.60;;;15.70;99.90;;;;;;4897214;29;20260;-74
2023/03/18 11:47:02;;;;;;;1.57;0.70;;;15.60;99.90;;;;;;4897118;29;20242;-74
2023/03/18 11:49:30;;;;;;;1.17;0.73;;;15.50;99.90;;;;;;4896887;29;20688;-74
2023/03/18 11:52:12;;;;;;;0.93;0.63;;;15.50;99.90;;;;;;4897315;29;20634;-74
2023/03/18 11:55:09;;;;;;;1.00;0.50;;;15.60;99.90;;;;;;4893967;29;20227;-75
2023/03/18 11:57:49;;;;;;;2.10;0.63;;;15.70;99.90;;;;;;4888529;29;20218;-74
2023/03/18 12:00:28;;;;;;;2.47;0.57;;;15.70;99.90;;;;;;4896924;29;20238;-74
2023/03/18 12:03:45;;;;;;;0.90;0.60;;;15.80;99.90;;;;;;4897656;29;20241;-73
2023/03/18 12:06:20;;;;;;;0.90;0.57;;;15.50;99.90;;;;;;4897707;29;20753;-74
2023/03/18 12:08:55;;;;;;;1.23;0.60;;;15.30;99.90;;;;;;4897265;29;20265;-74
2023/03/18 12:11:34;;;;;;;2.00;0.70;;;15.40;99.90;;;;;;4897361;29;20273;-74
2023/03/18 12:14:09;;;;;;;0.70;0.50;;;15.50;99.90;;;;;;4897168;29;20716;-74
2023/03/18 12:16:49;;;;;;;1.37;0.73;;;15.60;99.90;;;;;;4897109;29;20210;-74
2023/03/18 12:19:43;;;;;;;1.50;0.70;;;15.50;99.90;;;;;;4896630;29;20310;-74
2023/03/18 12:22:41;;;;;;;0.87;0.50;;;15.70;99.90;;;;;;4897700;29;20669;-74
2023/03/18 12:25:22;;;;;;;0.63;0.50;;;16.00;99.90;;;;;;4897679;29;20661;-74
2023/03/18 12:27:57;;;;;;;1.00;0.60;;;16.20;99.90;;;;;;4898138;29;20696;-73
2023/03/18 12:30:56;;;;;;;1.17;0.57;;;16.10;99.90;;;;;;4901321;29;20210;-74
2023/03/18 12:33:47;;;;;;;2.70;0.90;;;15.90;99.90;;;;;;4886894;29;20230;-75
2023/03/18 12:36:22;;;;;;;1.67;0.60;;;15.90;99.90;;;;;;4901363;29;20222;-75
2023/03/18 12:39:33;;;;;;;1.13;0.70;;;15.90;99.90;;;;;;4901210;29;20212;-74
2023/03/18 12:42:03;;;;;;;1.63;0.60;;;15.80;99.90;;;;;;4901327;29;20234;-74
2023/03/18 12:44:57;;;;;;;1.50;0.60;;;15.90;99.90;;;;;;4901372;29;20230;-74
2023/03/18 12:47:29;;;;;;;1.33;0.50;;;16.00;99.90;;;;;;4901519;29;20221;-74
2023/03/18 12:49:59;;;;;;;1.17;0.50;;;16.20;99.90;;;;;;4901401;29;20210;-74
2023/03/18 12:52:35;;;;;;;1.33;0.50;;;16.30;99.90;;;;;;4900780;29;20214;-74
2023/03/18 12:55:11;;;;;;;1.17;0.60;;;16.40;99.90;;;;;;4900971;29;20265;-74
2023/03/18 12:57:46;;;;;;;3.43;0.50;;;16.40;99.90;;;;;;4900290;29;20260;-74
2023/03/18 13:00:24;;;;;;;0.93;0.47;;;16.30;99.90;;;;;;4892225;29;20237;-77
2023/03/18 13:02:58;;;;;;;4.63;1.00;;;16.20;99.90;;;;;;4886830;29;20713;-75
2023/03/18 13:05:33;;;;;;;2.23;0.50;;;16.10;99.90;;;;;;4888901;29;20203;-74
2023/03/18 13:08:24;;;;;;;2.40;0.50;;;16.10;99.90;;;;;;4888740;29;20752;-76
2023/03/18 13:10:59;;;;;;;2.07;0.60;;;16.10;99.90;;;;;;4889485;29;20206;-74
2023/03/18 13:13:28;;;;;;;2.13;0.40;;;16.20;99.90;;;;;;4887972;29;20226;-75
2023/03/18 13:15:55;;;;;;;1.37;0.60;;;16.20;99.90;;;;;;4887293;29;20215;-76
2023/03/18 13:18:28;;;;;;;1.20;0.50;;;16.30;99.90;;;;;;4883789;29;20208;-73
2023/03/18 13:20:58;;;;;;;2.03;0.57;;;16.30;99.90;;;;;;4881070;29;20223;-74
2023/03/18 13:23:56;;;;;;;1.57;0.50;;;16.30;99.90;;;;;;4881693;29;20643;-76
